Time;durP1;ratioP1;P1;durP2;ratioP2;P2;SDS_P1;SDS_P2;PMS_P1;PMS_P2;Temp;Humidity;BMP_temperature;BMP_pressure;BME280_temperature;BME280_humidity;BME280_pressure;Samples;Min_cycle;Max_cycle;Signal;HPM_P1;HPM_P2
2022/03/15 00:00:32;;;;;;;;;;;24.70;99.90;;;;;;6156307;23;19912;-75
2022/03/15 00:02:59;;;;;;;;;;;24.80;99.90;;;;;;6156274;23;19939;-76
2022/03/15 00:05:26;;;;;;;;;;;25.00;99.90;;;;;;6156103;23;19944;-75
2022/03/15 00:07:52;;;;;;;;;;;24.90;99.90;;;;;;6156223;23;19900;-76
2022/03/15 00:10:19;;;;;;;;;;;25.00;99.90;;;;;;6157862;23;19900;-76
2022/03/15 00:12:47;;;;;;;;;;;25.20;99.90;;;;;;6158321;23;20245;-76
2022/03/15 00:15:14;;;;;;;;;;;25.40;99.90;;;;;;6157983;23;19900;-75
2022/03/15 00:17:43;;;;;;;;;;;25.60;99.90;;;;;;6157835;23;19973;-76
2022/03/15 00:20:11;;;;;;;;;;;25.70;99.90;;;;;;6157901;23;20290;-76
2022/03/15 00:22:38;;;;;;;;;;;25.60;99.90;;;;;;6157902;23;19904;-77
2022/03/15 00:25:05;;;;;;;;;;;25.60;99.90;;;;;;6157880;23;19900;-74
2022/03/15 00:27:33;;;;;;;;;;;25.50;99.90;;;;;;6157819;23;20310;-75
2022/03/15 00:30:00;;;;;;;;;;;25.40;99.90;;;;;;6158072;23;19901;-74
2022/03/15 00:32:26;;;;;;;;;;;25.50;99.90;;;;;;6157857;23;19901;-75
2022/03/15 00:34:53;;;;;;;;;;;25.40;99.90;;;;;;6157722;23;19907;-75
2022/03/15 00:37:20;;;;;;;;;;;25.50;99.90;;;;;;6157823;23;19928;-76
2022/03/15 00:39:47;;;;;;;;;;;25.60;99.90;;;;;;6157844;23;19915;-75
2022/03/15 00:42:14;;;;;;;;;;;25.30;99.90;;;;;;6131444;23;19907;-75
2022/03/15 00:44:41;;;;;;;;;;;25.40;99.90;;;;;;6131491;23;19975;-75
2022/03/15 00:47:08;;;;;;;;;;;25.50;99.90;;;;;;6157554;23;19980;-75
2022/03/15 00:49:35;;;;;;;;;;;25.10;99.90;;;;;;6131498;23;19971;-76
2022/03/15 00:52:02;;;;;;;;;;;24.60;99.90;;;;;;6131372;23;19900;-76
2022/03/15 00:54:29;;;;;;;;;;;25.20;99.90;;;;;;6157764;23;19904;-75
2022/03/15 00:56:57;;;;;;;;;;;25.10;99.90;;;;;;6131530;23;19900;-75
2022/03/15 00:59:23;;;;;;;;;;;24.80;99.90;;;;;;6157561;23;20345;-75
2022/03/15 01:01:50;;;;;;;;;;;24.60;99.90;;;;;;6157662;23;19907;-76
2022/03/15 01:04:17;;;;;;;;;;;25.00;99.90;;;;;;6157407;23;19900;-77
2022/03/15 01:06:43;;;;;;;;;;;25.30;99.90;;;;;;6157278;23;19940;-77
2022/03/15 01:09:10;;;;;;;;;;;26.00;99.90;;;;;;6131166;23;20237;-76
2022/03/15 01:11:37;;;;;;;;;;;26.20;99.90;;;;;;6157365;23;19963;-76
2022/03/15 01:14:04;;;;;;;;;;;26.70;99.90;;;;;;6131205;23;19900;-75
2022/03/15 01:16:31;;;;;;;;;;;26.80;99.90;;;;;;6157309;23;19902;-75
2022/03/15 01:18:58;;;;;;;;;;;26.50;99.90;;;;;;6157260;23;19904;-76
2022/03/15 01:21:25;;;;;;;;;;;26.00;99.90;;;;;;6130967;23;19900;-75
2022/03/15 01:23:51;;;;;;;;;;;26.40;99.90;;;;;;6157119;23;19911;-75
2022/03/15 01:26:18;;;;;;;;;;;26.40;99.90;;;;;;6157365;23;19923;-76
2022/03/15 01:28:45;;;;;;;;;;;26.10;99.90;;;;;;6157077;23;19900;-75
2022/03/15 01:31:11;;;;;;;;;;;26.50;99.90;;;;;;6130950;23;19901;-75
2022/03/15 01:33:38;;;;;;;;;;;26.10;99.90;;;;;;6130915;23;19900;-75
2022/03/15 01:36:05;;;;;;;;;;;26.30;99.90;;;;;;6157016;23;20315;-75
2022/03/15 01:38:34;;;;;;;;;;;26.20;99.90;;;;;;6156831;23;20217;-75
2022/03/15 01:41:00;;;;;;;;;;;26.40;99.90;;;;;;6157107;23;19901;-75
2022/03/15 01:43:27;;;;;;;;;;;26.50;99.90;;;;;;6157069;23;19976;-76
2022/03/15 01:45:54;;;;;;;;;;;26.10;99.90;;;;;;6131274;23;19915;-75
2022/03/15 01:48:21;;;;;;;;;;;25.70;99.90;;;;;;6157026;23;19900;-76
2022/03/15 01:50:48;;;;;;;;;;;25.60;99.90;;;;;;6157047;23;19904;-76
2022/03/15 01:53:15;;;;;;;;;;;25.00;99.90;;;;;;6157060;23;19900;-76
2022/03/15 01:55:42;;;;;;;;;;;24.60;99.90;;;;;;6156873;23;19900;-76
2022/03/15 01:58:08;;;;;;;;;;;24.60;99.90;;;;;;6130733;23;19901;-75
2022/03/15 02:00:35;;;;;;;;;;;25.30;99.90;;;;;;6156908;23;19987;-75
2022/03/15 02:03:03;;;;;;;;;;;25.90;99.90;;;;;;6130805;23;19944;-75
2022/03/15 02:05:30;;;;;;;;;;;25.80;99.90;;;;;;6156666;23;19912;-75
2022/03/15 02:07:57;;;;;;;;;;;25.50;99.90;;;;;;6156892;23;19907;-75
2022/03/15 02:10:24;;;;;;;;;;;25.60;99.90;;;;;;6156931;23;20023;-75
2022/03/15 02:12:50;;;;;;;;;;;25.80;99.90;;;;;;6130639;23;19932;-75
2022/03/15 02:15:17;;;;;;;;;;;25.40;99.90;;;;;;6156722;23;19911;-74
2022/03/15 02:17:44;;;;;;;;;;;25.10;99.90;;;;;;6156808;23;19900;-75
2022/03/15 02:20:11;;;;;;;;;;;24.80;99.90;;;;;;6130380;23;20352;-74
2022/03/15 02:22:37;;;;;;;;;;;25.10;99.90;;;;;;6156834;23;19958;-74
2022/03/15 02:25:04;;;;;;;;;;;25.30;99.90;;;;;;6156651;23;20318;-74
2022/03/15 02:27:31;;;;;;;;;;;25.20;99.90;;;;;;6156623;23;19901;-75
2022/03/15 02:29:58;;;;;;;;;;;25.20;99.90;;;;;;6156532;23;19904;-74
2022/03/15 02:32:25;;;;;;;;;;;25.10;99.90;;;;;;6130250;23;20314;-74
2022/03/15 02:34:55;;;;;;;;;;;24.80;99.90;;;;;;6156508;23;19900;-75
2022/03/15 02:37:21;;;;;;;;;;;24.80;99.90;;;;;;6156536;23;19906;-75
2022/03/15 02:39:48;;;;;;;;;;;25.00;99.90;;;;;;6156206;23;19905;-76
2022/03/15 02:42:15;;;;;;;;;;;24.90;99.90;;;;;;6156370;23;19983;-75
2022/03/15 02:44:41;;;;;;;;;;;25.00;99.90;;;;;;6156434;23;19923;-76
2022/03/15 02:47:08;;;;;;;;;;;24.80;99.90;;;;;;6156700;23;19905;-75
2022/03/15 02:49:34;;;;;;;;;;;24.70;99.90;;;;;;6130197;23;19959;-76
2022/03/15 02:52:01;;;;;;;;;;;24.90;99.90;;;;;;6156414;23;19904;-75
2022/03/15 02:54:28;;;;;;;;;;;25.60;99.90;;;;;;6130133;23;19922;-76
2022/03/15 02:56:55;;;;;;;;;;;25.70;99.90;;;;;;6130159;23;19904;-77
2022/03/15 02:59:22;;;;;;;;;;;25.80;99.90;;;;;;6156403;23;19905;-76
2022/03/15 03:01:49;;;;;;;;;;;25.20;99.90;;;;;;6130329;23;19900;-75
2022/03/15 03:04:18;;;;;;;;;;;24.80;99.90;;;;;;6130154;23;19932;-76
2022/03/15 03:06:46;;;;;;;;;;;24.50;99.90;;;;;;6130080;23;19912;-75
2022/03/15 03:09:14;;;;;;;;;;;24.20;99.90;;;;;;6130147;23;19900;-76
2022/03/15 03:11:41;;;;;;;;;;;24.20;99.90;;;;;;6130291;23;19901;-76
2022/03/15 03:14:08;;;;;;;;;;;24.60;99.90;;;;;;6130197;23;19907;-76
2022/03/15 03:16:35;;;;;;;;;;;25.40;99.90;;;;;;6130098;23;20369;-73
2022/03/15 03:19:04;;;;;;;;;;;25.90;99.90;;;;;;6156357;23;19927;-76
2022/03/15 03:21:32;;;;;;;;;;;25.70;99.90;;;;;;6156197;23;20230;-76
2022/03/15 03:23:59;;;;;;;;;;;25.60;99.90;;;;;;6130096;23;19948;-75
2022/03/15 03:26:26;;;;;;;;;;;25.20;99.90;;;;;;6156279;23;19900;-75
2022/03/15 03:28:53;;;;;;;;;;;25.10;99.90;;;;;;6130045;23;19900;-74
2022/03/15 03:31:20;;;;;;;;;;;25.20;99.90;;;;;;6156494;23;19904;-76
2022/03/15 03:35:44;;;;;;;3.95;0.60;;;25.00;99.90;;;;;;5110931;27;20392;-75
2022/03/15 03:38:13;;;;;;;5.53;0.80;;;25.60;99.90;;;;;;5110852;28;20031;-76
2022/03/15 03:40:40;;;;;;;6.88;1.13;;;26.00;99.90;;;;;;5110945;28;20038;-75
2022/03/15 03:43:07;;;;;;;4.07;0.52;;;26.40;99.90;;;;;;5092937;28;20108;-75
2022/03/15 03:45:36;;;;;;;3.00;0.70;;;26.70;99.90;;;;;;5111095;28;20357;-75
2022/03/15 03:48:04;;;;;;;4.13;0.88;;;26.50;99.90;;;;;;5110764;28;20495;-75
2022/03/15 03:50:32;;;;;;;4.30;0.82;;;26.70;99.90;;;;;;5110772;28;20032;-75
2022/03/15 03:52:59;;;;;;;5.90;0.82;;;26.90;99.90;;;;;;5126574;28;20487;-75
2022/03/15 03:55:27;;;;;;;5.65;0.85;;;26.90;99.90;;;;;;5110511;28;20020;-75
2022/03/15 03:57:54;;;;;;;4.97;0.68;;;26.90;99.90;;;;;;5092310;28;20028;-75
2022/03/15 04:00:22;;;;;;;4.43;1.30;;;27.00;99.90;;;;;;5110535;28;20105;-75
2022/03/15 04:02:51;;;;;;;4.80;0.80;;;26.80;99.90;;;;;;5126161;28;20364;-74
2022/03/15 04:05:20;;;;;;;5.28;1.15;;;26.80;99.90;;;;;;5110335;28;20016;-74
2022/03/15 04:07:47;;;;;;;4.80;0.80;;;26.80;99.90;;;;;;5108939;28;20020;-75
2022/03/15 04:10:15;;;;;;;4.40;0.80;;;26.90;99.90;;;;;;5108905;28;20024;-75
2022/03/15 04:12:44;;;;;;;6.47;0.93;;;26.50;99.90;;;;;;5108783;28;20119;-75
2022/03/15 04:15:11;;;;;;;3.72;0.60;;;26.60;99.90;;;;;;5110252;28;20020;-75
2022/03/15 04:17:39;;;;;;;4.72;0.73;;;26.40;99.90;;;;;;5110164;28;20016;-76
2022/03/15 04:20:07;;;;;;;5.25;1.10;;;26.70;99.90;;;;;;5108868;28;20391;-75
2022/03/15 04:22:34;;;;;;;3.85;1.10;;;26.70;99.90;;;;;;5108638;28;20107;-75
2022/03/15 04:25:01;;;;;;;4.88;1.02;;;26.60;99.90;;;;;;5110058;28;20495;-75
2022/03/15 04:27:29;;;;;;;4.90;1.08;;;27.00;99.90;;;;;;5109880;28;20020;-75
2022/03/15 04:29:57;;;;;;;4.55;0.80;;;27.10;99.90;;;;;;5109816;28;20024;-74
2022/03/15 04:32:24;;;;;;;6.63;1.00;;;27.00;99.90;;;;;;5109814;28;20039;-75
2022/03/15 04:34:52;;;;;;;4.90;0.80;;;27.10;99.90;;;;;;5109427;28;20036;-75
2022/03/15 04:37:20;;;;;;;5.82;0.70;;;27.10;99.90;;;;;;5108411;28;20020;-75
2022/03/15 04:39:47;;;;;;;4.10;0.70;;;27.00;99.90;;;;;;5108609;28;20502;-75
2022/03/15 04:42:15;;;;;;;6.13;0.90;;;27.20;99.90;;;;;;5109755;28;20016;-75
2022/03/15 04:44:42;;;;;;;6.50;1.00;;;27.40;99.90;;;;;;5108268;28;20035;-75
2022/03/15 04:47:10;;;;;;;5.30;0.90;;;27.10;99.90;;;;;;5095807;28;20024;-74
2022/03/15 04:49:37;;;;;;;5.28;0.90;;;27.00;99.90;;;;;;5094749;28;20024;-75
2022/03/15 04:52:05;;;;;;;4.53;0.77;;;26.90;99.90;;;;;;5096057;28;20052;-75
2022/03/15 04:54:32;;;;;;;4.40;0.70;;;27.30;99.90;;;;;;5095956;28;20020;-75
2022/03/15 04:56:59;;;;;;;6.05;0.90;;;26.60;99.90;;;;;;5095808;28;20027;-75
2022/03/15 04:59:26;;;;;;;5.95;0.85;;;26.30;99.90;;;;;;5095812;28;20020;-76
2022/03/15 05:01:54;;;;;;;5.75;0.82;;;26.20;99.90;;;;;;5094615;28;20020;-76
2022/03/15 05:04:21;;;;;;;8.23;1.33;;;26.30;99.90;;;;;;5095743;28;20024;-74
2022/03/15 05:06:48;;;;;;;3.15;0.75;;;26.70;99.90;;;;;;5095663;28;20099;-74
2022/03/15 05:09:16;;;;;;;5.32;0.85;;;26.60;99.90;;;;;;5095710;28;20029;-75
2022/03/15 05:11:46;;;;;;;4.60;0.70;;;26.70;99.90;;;;;;5094187;28;20028;-75
2022/03/15 05:14:14;;;;;;;6.50;1.10;;;26.90;99.90;;;;;;5095396;28;20454;-74
2022/03/15 05:16:42;;;;;;;4.85;1.00;;;27.00;99.90;;;;;;5095432;28;20016;-74
2022/03/15 05:19:10;;;;;;;9.40;1.20;;;27.40;99.90;;;;;;5095194;28;20016;-75
2022/03/15 05:21:37;;;;;;;4.75;1.40;;;27.30;99.90;;;;;;5095425;28;20016;-75
2022/03/15 05:24:05;;;;;;;6.22;0.82;;;26.90;99.90;;;;;;5095235;28;20027;-75
2022/03/15 05:26:32;;;;;;;4.47;0.80;;;27.20;99.90;;;;;;5093998;28;20252;-74
2022/03/15 05:29:00;;;;;;;6.90;1.25;;;27.50;99.90;;;;;;5095113;28;20085;-74
2022/03/15 05:31:29;;;;;;;6.60;1.20;;;27.20;99.90;;;;;;5095302;28;20047;-74
2022/03/15 05:33:56;;;;;;;6.05;1.10;;;26.70;99.90;;;;;;5093338;28;20050;-74
2022/03/15 05:36:23;;;;;;;5.10;0.93;;;26.20;99.90;;;;;;5095152;28;20027;-73
2022/03/15 05:38:51;;;;;;;5.15;1.00;;;26.20;99.90;;;;;;5094904;28;20024;-73
2022/03/15 05:41:18;;;;;;;5.13;0.90;;;26.40;99.90;;;;;;5094983;28;20024;-73
2022/03/15 05:43:45;;;;;;;10.07;1.52;;;26.20;99.90;;;;;;5094935;28;20024;-73
2022/03/15 05:46:13;;;;;;;5.38;1.40;;;26.00;99.90;;;;;;5093373;28;20028;-74
2022/03/15 05:48:40;;;;;;;5.68;0.90;;;26.10;99.90;;;;;;5093503;28;20544;-74
2022/03/15 05:51:08;;;;;;;6.00;0.70;;;26.00;99.90;;;;;;5094724;28;20023;-73
2022/03/15 05:53:35;;;;;;;4.30;1.20;;;26.10;99.90;;;;;;5094481;28;20039;-73
2022/03/15 05:56:02;;;;;;;7.22;1.10;;;25.90;99.90;;;;;;5093234;28;20051;-74
2022/03/15 05:58:30;;;;;;;4.35;0.85;;;25.70;99.90;;;;;;5093559;28;20020;-73
2022/03/15 06:00:57;;;;;;;7.25;1.00;;;25.40;99.90;;;;;;5094342;28;20023;-73
2022/03/15 06:03:25;;;;;;;6.13;1.10;;;25.20;99.90;;;;;;5094367;28;20020;-73
2022/03/15 06:05:52;;;;;;;5.45;0.90;;;25.20;99.90;;;;;;5094345;28;20012;-72
2022/03/15 06:08:20;;;;;;;3.63;0.90;;;25.30;99.90;;;;;;5093073;28;20027;-73
2022/03/15 06:10:47;;;;;;;5.18;0.95;;;25.30;99.90;;;;;;5094201;28;20365;-73
2022/03/15 06:13:15;;;;;;;4.90;0.93;;;25.30;99.90;;;;;;5094099;28;20027;-74
2022/03/15 06:15:42;;;;;;;2.95;0.75;;;25.20;99.90;;;;;;5093975;28;20024;-74
2022/03/15 06:18:10;;;;;;;7.57;1.13;;;25.20;99.90;;;;;;5094264;28;20016;-73
2022/03/15 06:20:37;;;;;;;6.22;1.30;;;25.20;99.90;;;;;;5094042;28;20020;-73
2022/03/15 06:23:04;;;;;;;5.13;1.02;;;25.50;99.90;;;;;;5094004;28;20415;-74
2022/03/15 06:25:32;;;;;;;4.95;1.17;;;25.50;99.90;;;;;;5093800;28;20468;-73
2022/03/15 06:27:59;;;;;;;3.92;0.60;;;25.20;99.90;;;;;;5094051;28;20089;-74
2022/03/15 06:30:27;;;;;;;5.40;1.40;;;25.00;99.90;;;;;;5092454;28;20435;-73
2022/03/15 06:32:55;;;;;;;7.38;1.60;;;25.10;99.90;;;;;;5094143;28;20361;-73
2022/03/15 06:35:23;;;;;;;5.75;1.10;;;25.30;99.90;;;;;;5093719;28;20044;-74
2022/03/15 06:37:51;;;;;;;7.72;1.23;;;25.50;99.90;;;;;;5092474;28;20546;-74
2022/03/15 06:40:26;;;;;;;7.43;1.05;;;25.50;99.90;;;;;;5093712;28;20020;-73
2022/03/15 06:42:54;;;;;;;5.32;0.80;;;25.40;99.90;;;;;;5092321;28;20081;-73
2022/03/15 06:45:23;;;;;;;5.38;0.93;;;25.40;99.90;;;;;;5093770;28;20397;-73
2022/03/15 06:47:51;;;;;;;5.70;1.10;;;25.30;99.90;;;;;;5093698;28;20110;-73
2022/03/15 06:50:18;;;;;;;8.32;1.98;;;25.00;99.90;;;;;;5092193;28;20024;-75
2022/03/15 06:52:47;;;;;;;7.00;1.20;;;25.00;99.90;;;;;;5093619;28;20044;-72
2022/03/15 06:55:14;;;;;;;8.35;1.20;;;24.80;99.90;;;;;;5093408;28;20035;-73
2022/03/15 06:57:42;;;;;;;7.53;1.00;;;24.40;99.90;;;;;;5093422;28;20020;-73
2022/03/15 07:00:13;;;;;;;6.72;1.02;;;24.30;99.90;;;;;;5093454;28;20012;-73
2022/03/15 07:02:40;;;;;;;;;;;24.10;99.90;;;;;;5094010;28;20012;-73
2022/03/15 07:05:15;;;;;;;5.85;1.20;;;23.80;99.90;;;;;;5093247;28;19904;-73
2022/03/15 07:07:43;;;;;;;7.70;1.55;;;23.70;99.90;;;;;;5093194;28;20047;-73
2022/03/15 07:10:12;;;;;;;5.90;1.30;;;23.50;99.90;;;;;;5091751;28;20034;-74
2022/03/15 07:12:39;;;;;;;8.65;1.30;;;23.60;99.90;;;;;;5093191;28;20020;-73
2022/03/15 07:15:09;;;;;;;5.78;0.98;;;23.70;99.90;;;;;;5093248;28;20468;-73
2022/03/15 07:17:36;;;;;;;8.83;1.00;;;23.70;99.90;;;;;;5093210;28;20494;-73
2022/03/15 07:20:04;;;;;;;8.20;1.30;;;23.50;99.90;;;;;;5093158;28;20077;-73
2022/03/15 07:22:32;;;;;;;7.68;1.23;;;23.40;99.90;;;;;;5093278;28;20028;-73
2022/03/15 07:24:59;;;;;;;6.30;1.27;;;23.30;99.90;;;;;;5091817;28;20504;-74
2022/03/15 07:27:26;;;;;;;6.50;1.75;;;23.20;99.90;;;;;;5091802;28;20451;-73
2022/03/15 07:29:54;;;;;;;9.30;1.60;;;23.10;99.90;;;;;;5091583;28;20028;-73
2022/03/15 07:32:21;;;;;;;6.60;1.20;;;23.10;99.90;;;;;;5092936;28;20020;-73
2022/03/15 07:34:49;;;;;;;4.88;1.20;;;23.00;99.90;;;;;;5091425;28;20459;-73
2022/03/15 07:37:17;;;;;;;8.40;1.40;;;22.90;99.90;;;;;;5092965;28;20028;-74
2022/03/15 07:39:45;;;;;;;8.80;1.52;;;22.90;99.90;;;;;;5092995;28;20031;-74
2022/03/15 07:42:12;;;;;;;7.82;1.10;;;22.80;99.90;;;;;;5093084;28;20456;-74
2022/03/15 07:44:45;;;;;;;5.38;0.70;;;22.70;99.90;;;;;;5092971;28;20025;-73
2022/03/15 07:47:14;;;;;;;3.55;0.70;;;22.70;99.90;;;;;;5092896;28;20025;-73
2022/03/15 07:49:41;;;;;;;6.03;1.25;;;22.60;99.90;;;;;;5092933;28;20476;-74
2022/03/15 07:52:10;;;;;;;6.45;1.50;;;22.60;99.90;;;;;;5091333;28;20074;-73
2022/03/15 07:54:37;;;;;;;9.02;1.52;;;22.50;99.90;;;;;;5091479;28;20066;-72
2022/03/15 07:57:05;;;;;;;7.72;1.33;;;22.40;99.90;;;;;;5091459;28;20028;-73
2022/03/15 07:59:32;;;;;;;8.73;1.75;;;22.30;99.90;;;;;;5092880;28;20519;-73
2022/03/15 08:01:59;;;;;;;8.20;1.27;;;22.30;99.90;;;;;;5092757;28;20099;-73
2022/03/15 08:04:27;;;;;;;7.63;1.33;;;22.30;99.90;;;;;;5092708;28;20369;-73
2022/03/15 08:06:54;;;;;;;8.18;1.27;;;22.20;99.90;;;;;;5092607;28;20024;-73
2022/03/15 08:09:22;;;;;;;8.20;1.27;;;22.20;99.90;;;;;;5092649;28;20070;-73
2022/03/15 08:11:49;;;;;;;10.80;2.10;;;22.10;99.90;;;;;;5091540;28;20028;-75
2022/03/15 08:14:17;;;;;;;7.68;1.52;;;22.00;99.90;;;;;;5092624;28;20080;-74
2022/03/15 08:16:44;;;;;;;7.13;1.20;;;22.00;99.90;;;;;;5092608;28;20052;-74
2022/03/15 08:19:12;;;;;;;6.18;1.30;;;21.90;99.90;;;;;;5091369;28;20183;-74
2022/03/15 08:21:39;;;;;;;6.95;1.90;;;22.00;99.90;;;;;;5094970;28;20393;-74
2022/03/15 08:24:07;;;;;;;7.10;1.40;;;21.90;99.90;;;;;;5095096;28;20501;-75
2022/03/15 08:26:34;;;;;;;10.63;1.48;;;21.90;99.90;;;;;;5096294;28;20032;-75
2022/03/15 08:29:02;;;;;;;10.40;1.95;;;22.00;99.90;;;;;;5095133;28;20051;-74
2022/03/15 08:31:29;;;;;;;13.48;1.60;;;22.00;99.90;;;;;;5096475;28;20024;-74
2022/03/15 08:33:56;;;;;;;10.05;2.00;;;21.80;99.90;;;;;;5094676;28;20044;-74
2022/03/15 08:36:24;;;;;;;7.93;1.90;;;21.70;99.90;;;;;;5094882;28;20031;-73
2022/03/15 08:38:54;;;;;;;9.48;1.63;;;21.50;99.90;;;;;;5096086;28;20095;-72
2022/03/15 08:41:21;;;;;;;10.77;1.48;;;21.30;99.90;;;;;;5096074;28;20022;-73
2022/03/15 08:43:49;;;;;;;12.75;1.98;;;21.20;99.90;;;;;;5096072;28;20030;-73
2022/03/15 08:46:16;;;;;;;9.23;1.40;;;21.10;99.90;;;;;;5096108;28;20036;-73
2022/03/15 08:48:43;;;;;;;10.13;1.98;;;21.00;99.90;;;;;;5095972;28;20099;-73
2022/03/15 08:51:11;;;;;;;9.95;1.90;;;21.00;99.90;;;;;;5095920;28;20107;-73
2022/03/15 08:53:38;;;;;;;10.52;1.95;;;21.00;99.90;;;;;;5094615;28;20114;-73
2022/03/15 08:56:06;;;;;;;7.63;2.03;;;20.90;99.90;;;;;;5094556;28;20115;-73
2022/03/15 08:58:33;;;;;;;12.23;2.20;;;20.90;99.90;;;;;;5095804;28;20526;-73
2022/03/15 09:01:01;;;;;;;10.75;2.25;;;20.90;99.90;;;;;;5095786;28;20016;-73
2022/03/15 09:03:28;;;;;;;9.60;1.85;;;20.90;99.90;;;;;;5095693;28;20476;-73
2022/03/15 09:05:55;;;;;;;13.55;1.35;;;20.90;99.90;;;;;;5095672;28;20070;-73
2022/03/15 09:08:22;;;;;;;7.53;1.35;;;20.90;99.90;;;;;;5094358;28;20081;-73
2022/03/15 09:10:50;;;;;;;6.30;1.50;;;20.90;99.90;;;;;;5095583;28;20016;-72
2022/03/15 09:13:17;;;;;;;8.80;1.48;;;20.90;99.90;;;;;;5094295;28;20028;-73
2022/03/15 09:15:45;;;;;;;8.95;1.90;;;20.90;99.90;;;;;;5095427;28;20020;-73
2022/03/15 09:18:13;;;;;;;5.25;1.10;;;20.80;99.90;;;;;;5095453;28;20067;-73
2022/03/15 09:20:42;;;;;;;10.85;2.00;;;20.80;99.90;;;;;;5095383;28;20357;-72
2022/03/15 09:23:09;;;;;;;7.60;1.35;;;20.80;99.90;;;;;;5095314;28;20081;-73
2022/03/15 09:26:15;;;;;;;8.20;1.50;;;20.80;99.90;;;;;;5095257;28;20069;-73
2022/03/15 09:28:44;;;;;;;8.00;1.00;;;20.70;99.90;;;;;;5095274;28;20028;-73
2022/03/15 09:31:11;;;;;;;8.63;1.80;;;20.70;99.90;;;;;;5095125;28;20076;-73
2022/03/15 09:33:39;;;;;;;4.72;0.90;;;20.70;99.90;;;;;;5093578;28;20059;-73
2022/03/15 09:36:07;;;;;;;6.25;1.10;;;20.70;99.90;;;;;;5094948;28;20104;-73
2022/03/15 09:38:34;;;;;;;3.55;0.73;;;20.60;99.90;;;;;;5094968;28;20028;-72
2022/03/15 09:41:05;;;;;;;3.65;0.77;;;20.60;99.90;;;;;;5094973;28;20044;-72
2022/03/15 09:43:39;;;;;;;8.98;1.35;;;20.60;99.90;;;;;;5095109;28;20024;-72
2022/03/15 09:46:08;;;;;;;8.00;0.85;;;20.60;99.90;;;;;;5093714;28;20020;-72
2022/03/15 09:48:36;;;;;;;4.47;0.95;;;20.60;99.90;;;;;;5094995;28;20038;-73
2022/03/15 09:51:05;;;;;;;6.28;1.10;;;20.60;99.90;;;;;;5094858;28;20027;-72
2022/03/15 09:53:37;;;;;;;7.18;1.25;;;20.60;99.90;;;;;;5094965;28;20027;-74
2022/03/15 09:56:05;;;;;;;7.80;1.25;;;20.60;99.90;;;;;;5094930;28;20032;-73
2022/03/15 09:58:32;;;;;;;7.25;1.50;;;20.60;99.90;;;;;;5093667;28;20074;-74
2022/03/15 10:00:59;;;;;;;6.07;1.02;;;20.60;99.90;;;;;;5094448;28;20361;-72
2022/03/15 10:03:27;;;;;;;6.60;1.23;;;20.50;99.90;;;;;;5094394;28;20100;-72
2022/03/15 10:05:54;;;;;;;5.10;1.33;;;20.50;99.90;;;;;;5094613;28;20052;-72
2022/03/15 10:08:22;;;;;;;5.60;1.23;;;20.40;99.90;;;;;;5093145;28;20073;-72
2022/03/15 10:10:53;;;;;;;7.18;0.82;;;20.40;99.90;;;;;;5094622;28;20055;-72
2022/03/15 10:13:22;;;;;;;5.68;0.75;;;20.40;99.90;;;;;;5094623;28;20419;-72
2022/03/15 10:15:59;;;;;;;6.22;0.95;;;20.30;99.90;;;;;;5094365;28;20021;-72
2022/03/15 10:18:28;;;;;;;5.68;0.90;;;20.30;99.90;;;;;;5094441;28;20097;-72
2022/03/15 10:20:55;;;;;;;6.80;0.90;;;20.30;99.90;;;;;;5094460;28;20028;-72
2022/03/15 10:23:29;;;;;;;5.25;1.00;;;20.20;99.90;;;;;;5094321;28;20443;-72
2022/03/15 10:26:04;;;;;;;4.82;0.70;;;20.20;99.90;;;;;;5092886;28;20024;-72
2022/03/15 10:28:32;;;;;;;5.78;0.98;;;20.20;99.90;;;;;;5093009;28;20076;-73
2022/03/15 10:31:02;;;;;;;4.22;1.15;;;20.10;99.90;;;;;;5092814;28;20028;-73
2022/03/15 10:33:30;;;;;;;3.35;0.50;;;20.10;99.90;;;;;;5093769;28;20020;-73
2022/03/15 10:35:57;;;;;;;4.80;0.63;;;20.10;99.90;;;;;;5092697;28;20020;-73
2022/03/15 10:38:24;;;;;;;2.92;0.70;;;20.10;99.90;;;;;;5092577;28;20024;-73
2022/03/15 10:40:53;;;;;;;6.22;0.85;;;20.10;99.90;;;;;;5094136;28;20095;-73
2022/03/15 10:43:24;;;;;;;4.43;0.70;;;20.20;99.90;;;;;;5092118;28;20020;-74
2022/03/15 10:45:57;;;;;;;3.33;0.63;;;20.20;99.90;;;;;;5094040;28;20495;-74
2022/03/15 10:48:35;;;;;;;4.10;0.73;;;20.20;99.90;;;;;;5093714;28;20539;-74
2022/03/15 10:51:06;;;;;;;3.28;0.60;;;20.20;99.90;;;;;;5093747;28;20024;-72
2022/03/15 10:53:41;;;;;;;5.93;0.85;;;20.30;99.90;;;;;;5093556;28;20055;-73
2022/03/15 10:56:21;;;;;;;4.03;0.47;;;20.30;99.90;;;;;;5093718;28;20016;-73
2022/03/15 10:58:48;;;;;;;;;;;20.30;99.90;;;;;;5094023;28;20024;-73
2022/03/15 11:01:23;;;;;;;3.72;0.60;;;20.20;99.90;;;;;;5092327;28;19910;-73
2022/03/15 11:03:57;;;;;;;3.65;0.82;;;20.20;99.90;;;;;;5093491;28;20027;-73
2022/03/15 11:06:32;;;;;;;2.97;0.40;;;20.20;99.90;;;;;;5093545;28;20016;-73
2022/03/15 11:09:00;;;;;;;3.53;0.80;;;20.20;99.90;;;;;;5092136;28;20024;-73
2022/03/15 11:11:28;;;;;;;3.28;0.50;;;20.20;99.90;;;;;;5093348;28;20388;-72
2022/03/15 11:14:06;;;;;;;5.68;0.90;;;20.10;99.90;;;;;;5091953;28;20032;-73
2022/03/15 11:16:38;;;;;;;6.10;0.88;;;20.00;99.90;;;;;;5093361;28;20028;-72
2022/03/15 11:19:06;;;;;;;6.85;0.95;;;20.00;99.90;;;;;;5093364;28;20069;-72
2022/03/15 11:21:35;;;;;;;3.17;0.73;;;19.90;99.90;;;;;;5093339;28;20028;-72
2022/03/15 11:24:04;;;;;;;6.75;1.13;;;19.80;99.90;;;;;;5093374;28;20090;-72
2022/03/15 11:26:33;;;;;;;4.45;0.75;;;19.70;99.90;;;;;;5093291;28;20039;-72
2022/03/15 11:29:04;;;;;;;4.65;0.60;;;19.80;99.90;;;;;;5093081;28;20016;-72
2022/03/15 11:31:33;;;;;;;2.83;0.80;;;19.70;99.90;;;;;;5091828;28;20047;-71
2022/03/15 11:34:02;;;;;;;4.32;1.00;;;19.70;99.90;;;;;;5092685;28;20133;-71
2022/03/15 11:36:30;;;;;;;6.05;1.08;;;19.70;99.90;;;;;;5093018;28;20090;-71
2022/03/15 11:38:59;;;;;;;5.28;1.25;;;19.50;99.90;;;;;;5092976;28;20077;-73
2022/03/15 11:41:28;;;;;;;6.80;1.50;;;19.50;99.90;;;;;;5091632;28;20111;-73
2022/03/15 11:44:21;;;;;;;7.68;2.17;;;19.40;99.90;;;;;;5091648;28;20020;-73
2022/03/15 11:47:16;;;;;;;6.90;1.40;;;19.40;99.90;;;;;;5093055;28;20020;-73
2022/03/15 11:50:11;;;;;;;6.22;1.50;;;19.40;99.90;;;;;;5092710;28;20043;-74
2022/03/15 11:52:57;;;;;;;6.88;1.60;;;19.40;99.90;;;;;;5093181;28;20069;-74
2022/03/15 11:55:48;;;;;;;4.55;1.35;;;19.40;99.90;;;;;;5091993;28;20032;-73
2022/03/15 11:58:27;;;;;;;6.20;1.27;;;19.50;99.90;;;;;;5097116;28;20032;-73
2022/03/15 12:00:57;;;;;;;7.13;1.48;;;19.40;99.90;;;;;;5097012;28;20028;-74
2022/03/15 12:03:26;;;;;;;6.25;1.35;;;19.30;99.90;;;;;;5097004;28;20031;-73
2022/03/15 12:05:57;;;;;;;4.88;1.10;;;19.20;99.90;;;;;;5095564;28;20496;-73
2022/03/15 12:08:26;;;;;;;7.40;1.30;;;19.30;99.90;;;;;;5095626;28;20115;-74
2022/03/15 12:11:29;;;;;;;6.60;1.42;;;19.20;99.90;;;;;;5096825;28;20030;-73
2022/03/15 12:14:38;;;;;;;7.80;1.40;;;19.20;99.90;;;;;;5096749;28;20024;-73
2022/03/15 12:17:06;;;;;;;6.53;1.38;;;19.00;99.90;;;;;;5095250;28;20385;-74
2022/03/15 12:19:52;;;;;;;8.88;1.98;;;19.10;99.90;;;;;;5096489;28;20024;-74
2022/03/15 12:22:30;;;;;;;5.07;1.13;;;19.10;99.90;;;;;;5095098;28;20428;-73
2022/03/15 12:25:05;;;;;;;7.40;1.52;;;19.10;99.90;;;;;;5096439;28;20027;-74
2022/03/15 12:27:41;;;;;;;4.97;1.50;;;19.00;99.90;;;;;;5096316;28;20065;-74
2022/03/15 12:30:11;;;;;;;6.18;1.20;;;19.00;99.90;;;;;;5096361;28;20020;-74
2022/03/15 12:32:39;;;;;;;5.43;1.38;;;19.00;99.90;;;;;;5096239;28;20031;-74
2022/03/15 12:35:11;;;;;;;6.90;1.38;;;19.00;99.90;;;;;;5095989;28;20047;-74
2022/03/15 12:37:40;;;;;;;7.57;1.58;;;18.90;99.90;;;;;;5096220;28;20020;-74
2022/03/15 12:40:10;;;;;;;4.85;1.08;;;19.00;99.90;;;;;;5096104;28;20101;-74
2022/03/15 12:42:39;;;;;;;8.35;1.52;;;19.00;99.90;;;;;;5094735;28;20016;-74
2022/03/15 12:45:11;;;;;;;5.35;1.45;;;19.00;99.90;;;;;;5096009;28;20024;-74
2022/03/15 12:47:44;;;;;;;8.07;1.65;;;19.00;99.90;;;;;;5096162;28;20484;-74
2022/03/15 12:50:15;;;;;;;6.03;1.33;;;18.90;99.90;;;;;;5095956;28;20469;-74
2022/03/15 12:52:49;;;;;;;8.00;1.55;;;18.90;99.90;;;;;;5094642;28;20028;-74
2022/03/15 12:55:26;;;;;;;8.73;1.45;;;18.90;99.90;;;;;;5095860;28;20031;-73
2022/03/15 12:58:03;;;;;;;5.80;1.38;;;19.00;99.90;;;;;;5094468;28;20468;-74
2022/03/15 13:00:32;;;;;;;9.82;2.20;;;19.00;99.90;;;;;;5095746;28;20020;-74
2022/03/15 13:03:00;;;;;;;7.43;1.92;;;19.00;99.90;;;;;;5095682;28;20021;-74
2022/03/15 13:05:29;;;;;;;8.68;2.15;;;19.10;99.90;;;;;;5095580;28;20039;-73
2022/03/15 13:08:05;;;;;;;5.05;1.70;;;19.10;99.90;;;;;;5095083;28;20421;-74
2022/03/15 13:10:43;;;;;;;5.50;2.20;;;19.20;99.90;;;;;;5095619;28;20020;-74
2022/03/15 13:13:29;;;;;;;5.20;1.90;;;19.20;99.90;;;;;;5095534;28;20016;-74
2022/03/15 13:16:03;;;;;;;5.35;1.58;;;19.30;99.90;;;;;;5094145;28;20117;-74
2022/03/15 13:18:34;;;;;;;4.72;1.77;;;19.30;99.90;;;;;;5094172;28;20396;-74
2022/03/15 13:21:07;;;;;;;4.07;1.15;;;19.30;99.90;;;;;;5094197;28;20023;-74